Time;durP1;ratioP1;P1;durP2;ratioP2;P2;SDS_P1;SDS_P2;PMS_P1;PMS_P2;Temp;Humidity;BMP_temperature;BMP_pressure;BME280_temperature;BME280_humidity;BME280_pressure;Samples;Min_cycle;Max_cycle;Signal;HPM_P1;HPM_P2
2022/02/23 00:01:44;;;;;;;;;3.33;3.33;;;;;14.94;100.00;102246.25;5055338;28;47447;-92
2022/02/23 00:04:09;;;;;;;;;6.00;5.00;;;;;14.91;100.00;102238.16;5053295;28;45836;-92
2022/02/23 00:06:35;;;;;;;;;6.67;5.67;;;;;14.92;100.00;102250.53;5055128;28;45304;-92
2022/02/23 00:09:00;;;;;;;;;8.67;4.33;;;;;14.82;100.00;102250.84;5055074;28;45762;-91
2022/02/23 00:11:26;;;;;;;;;9.00;6.33;;;;;14.72;100.00;102237.16;5055127;28;48386;-92
2022/02/23 00:13:51;;;;;;;;;7.67;5.00;;;;;14.73;100.00;102249.56;5055251;28;45320;-92
2022/02/23 00:16:17;;;;;;;;;12.33;7.00;;;;;14.60;100.00;102231.25;5055052;28;45347;-92
2022/02/23 00:18:42;;;;;;;;;5.67;4.33;;;;;14.68;100.00;102251.06;5048669;28;45448;-91
2022/02/23 00:21:08;;;;;;;;;6.00;4.33;;;;;14.55;100.00;102235.38;5043564;28;46977;-92
2022/02/23 00:23:33;;;;;;;;;7.00;5.33;;;;;14.54;100.00;102245.03;5051972;28;45442;-92
2022/02/23 00:25:58;;;;;;;;;5.00;4.33;;;;;14.43;100.00;102233.00;5055443;28;45293;-92
2022/02/23 00:28:24;;;;;;;;;9.33;4.67;;;;;14.44;100.00;102248.91;5051142;28;45749;-92
2022/02/23 00:30:49;;;;;;;;;8.00;6.00;;;;;14.32;100.00;102227.13;5054259;28;48236;-92
2022/02/23 00:33:15;;;;;;;;;4.33;4.00;;;;;14.31;100.00;102236.78;5055999;28;45664;-92
2022/02/23 00:35:40;;;;;;;;;4.00;4.00;;;;;14.30;100.00;102230.59;5054825;28;45773;-91
2022/02/23 00:38:06;;;;;;;;;8.00;4.67;;;;;14.24;100.00;102232.00;5054774;28;45431;-92
2022/02/23 00:40:31;;;;;;;;;4.67;2.67;;;;;14.24;100.00;102242.56;5055915;28;45518;-91
2022/02/23 00:42:57;;;;;;;;;4.00;4.00;;;;;14.17;100.00;102231.66;5054346;28;45580;-92
2022/02/23 00:45:25;;;;;;;;;7.33;3.67;;;;;14.17;100.00;102234.28;5054929;28;45576;-92
2022/02/23 00:47:50;;;;;;;;;5.67;4.00;;;;;14.12;100.00;102238.41;5055513;28;45562;-92
2022/02/23 00:50:16;;;;;;;;;4.33;3.00;;;;;14.08;100.00;102234.72;5055876;28;45391;-91
2022/02/23 00:52:41;;;;;;;;;4.33;4.33;;;;;14.06;100.00;102239.00;5049271;28;45464;-91
2022/02/23 00:55:08;;;;;;;;;6.33;3.00;;;;;14.08;100.00;102250.56;5052571;28;45537;-93
2022/02/23 00:57:33;;;;;;;;;4.67;4.67;;;;;14.00;100.00;102248.31;5054517;28;45662;-93
2022/02/23 00:59:59;;;;;;;;;4.67;4.00;;;;;14.01;100.00;102248.41;5055057;28;47067;-92
2022/02/23 01:02:25;;;;;;;;;4.00;4.00;;;;;13.94;100.00;102240.97;5054468;28;45380;-93
2022/02/23 01:04:50;;;;;;;;;5.00;3.00;;;;;13.86;100.00;102232.63;5035436;28;45425;-93
2022/02/23 01:07:16;;;;;;;;;5.33;2.33;;;;;13.90;100.00;102253.09;5048033;28;45476;-92
2022/02/23 01:09:42;;;;;;;;;6.67;4.00;;;;;13.82;100.00;102239.47;5048201;28;47337;-94
2022/02/23 01:12:07;;;;;;;;;6.67;3.67;;;;;13.84;100.00;102242.16;5049320;28;45637;-93
2022/02/23 01:14:33;;;;;;;;;7.00;3.00;;;;;13.75;100.00;102242.56;5052981;28;45408;-93
2022/02/23 01:16:58;;;;;;;;;6.67;4.67;;;;;13.79;100.00;102259.47;5054504;28;45424;-93
2022/02/23 01:19:25;;;;;;;;;3.00;2.00;;;;;13.76;100.00;102261.97;5053885;28;48176;-92
2022/02/23 01:21:50;;;;;;;;;4.00;3.00;;;;;13.69;100.00;102247.50;5053620;28;46054;-93
2022/02/23 01:24:16;;;;;;;;;5.33;4.00;;;;;13.65;100.00;102240.25;5053923;28;45578;-93
2022/02/23 01:26:41;;;;;;;;;5.33;4.00;;;;;13.63;100.00;102248.97;5054093;28;45531;-92
2022/02/23 01:29:07;;;;;;;;;5.33;3.00;;;;;13.64;100.00;102255.16;5071375;28;46890;-93
2022/02/23 01:31:32;;;;;;;;;3.00;2.67;;;;;13.60;100.00;102253.19;5053720;28;45739;-92
2022/02/23 01:33:58;;;;;;;;;3.00;3.00;;;;;13.60;100.00;102258.44;5053719;28;45322;-93
2022/02/23 01:36:23;;;;;;;;;3.67;3.33;;;;;13.58;100.00;102266.25;5053462;28;45508;-93
2022/02/23 01:38:49;;;;;;;;;5.67;4.33;;;;;13.49;100.00;102258.72;5053623;28;47044;-93
2022/02/23 01:41:17;;;;;;;;;5.67;5.00;;;;;13.48;100.00;102258.59;5070868;28;45648;-93
2022/02/23 01:43:44;;;;;;;;;3.67;3.67;;;;;13.40;100.00;102245.88;5044258;28;45555;-93
2022/02/23 01:46:10;;;;;;;;;3.00;3.00;;;;;13.41;100.00;102260.91;5048473;28;45467;-93
2022/02/23 01:48:35;;;;;;;;;4.33;3.00;;;;;13.39;100.00;102267.81;5064569;28;46950;-94
2022/02/23 01:51:01;;;;;;;;;7.00;4.00;;;;;13.32;100.00;102257.75;5067037;28;44843;-92
2022/02/23 01:53:26;;;;;;;;;5.67;4.00;;;;;13.26;100.00;102263.56;5078538;27;45202;-92
2022/02/23 01:55:51;;;;;;;;;3.33;3.33;;;;;13.37;100.00;102279.09;5081540;27;44890;-93
2022/02/23 01:58:17;;;;;;;;;3.33;3.33;;;;;13.41;100.00;102281.09;5064314;27;46364;-92
2022/02/23 02:00:42;;;;;;;;;2.67;2.67;;;;;13.35;100.00;102279.00;5055173;28;45376;-93
2022/02/23 02:03:08;;;;;;;;;3.33;2.33;;;;;13.26;100.00;102267.91;5054615;28;45436;-93
2022/02/23 02:05:33;;;;;;;;;3.00;3.00;;;;;13.15;100.00;102262.91;5054120;28;45302;-93
2022/02/23 02:07:59;;;;;;;;;4.67;3.00;;;;;13.23;100.00;102287.09;5053304;28;46205;-93
2022/02/23 02:10:24;;;;;;;;;8.33;3.67;;;;;13.21;100.00;102283.47;5050062;28;45875;-93
2022/02/23 02:12:49;;;;;;;;;7.00;4.33;;;;;13.22;100.00;102287.03;5061486;28;45494;-93
2022/02/23 02:15:15;;;;;;;;;9.00;4.33;;;;;13.17;100.00;102290.28;5049622;28;45744;-92
2022/02/23 02:17:41;;;;;;;;;5.67;5.00;;;;;13.13;100.00;102290.00;5036121;28;45737;-93
2022/02/23 02:20:09;;;;;;;;;4.67;4.33;;;;;13.09;100.00;102288.00;5053236;28;45580;-93
2022/02/23 02:22:34;;;;;;;;;4.00;3.33;;;;;13.06;100.00;102291.38;5051828;28;45361;-92
2022/02/23 02:25:00;;;;;;;;;9.00;5.67;;;;;13.06;100.00;102291.38;5071614;27;45323;-92
2022/02/23 02:27:26;;;;;;;;;6.00;3.00;;;;;13.03;100.00;102283.28;5052506;28;47084;-92
2022/02/23 02:29:51;;;;;;;;;7.67;7.67;;;;;13.04;100.00;102295.66;5054245;28;45303;-92
2022/02/23 02:32:17;;;;;;;;;6.33;5.00;;;;;13.02;100.00;102281.44;5069856;28;45339;-92
2022/02/23 02:34:44;;;;;;;;;4.00;4.00;;;;;13.02;100.00;102289.34;5052170;28;45499;-93
2022/02/23 02:37:09;;;;;;;;;4.00;4.00;;;;;13.02;100.00;102295.53;5051481;28;47175;-91
2022/02/23 02:39:35;;;;;;;;;3.00;3.00;;;;;12.98;100.00;102287.34;5052231;28;45960;-93
2022/02/23 02:42:00;;;;;;;;;6.67;3.33;;;;;13.04;100.00;102288.63;5052259;28;45515;-93
2022/02/23 02:44:26;;;;;;;;;7.67;6.67;;;;;12.96;100.00;102288.16;5070367;28;45498;-93
2022/02/23 02:46:51;;;;;;;;;3.33;3.33;;;;;12.91;100.00;102279.06;5051670;28;48612;-92
2022/02/23 02:49:17;;;;;;;;;3.67;3.00;;;;;12.92;100.00;102277.34;5052006;28;45502;-92
2022/02/23 02:51:42;;;;;;;;;5.00;5.00;;;;;12.96;100.00;102289.91;5048382;28;45507;-92
2022/02/23 02:54:09;;;;;;;;;4.67;4.67;;;;;12.93;100.00;102280.09;5038144;28;45354;-93
2022/02/23 02:56:36;;;;;;;;;5.67;3.00;;;;;12.91;100.00;102284.34;5067665;28;47464;-92
2022/02/23 02:59:02;;;;;;;;;7.00;3.33;;;;;12.85;100.00;102291.88;5048362;28;45420;-92
2022/02/23 03:01:29;;;;;;;;;4.00;3.00;;;;;12.84;100.00;102290.97;5049143;28;45838;-92
2022/02/23 03:03:56;;;;;;;;;6.33;3.00;;;;;12.82;100.00;102287.34;5044063;28;45420;-92
2022/02/23 03:06:22;;;;;;;;;4.33;4.00;;;;;12.76;100.00;102280.75;5038109;28;48424;-92
2022/02/23 03:08:49;;;;;;;;;9.00;4.00;;;;;12.79;100.00;102279.25;5068367;28;45359;-93
2022/02/23 03:11:15;;;;;;;;;3.33;3.33;;;;;12.68;100.00;102288.22;5069044;28;45312;-92
2022/02/23 03:13:41;;;;;;;;;9.33;3.67;;;;;12.65;100.00;102285.41;5052038;28;45292;-93
2022/02/23 03:16:10;;;;;;;;;3.00;3.00;;;;;12.71;100.00;102289.31;5051881;28;47628;-93
2022/02/23 03:18:35;;;;;;;;;6.33;4.67;;;;;12.63;100.00;102275.66;5042903;28;45919;-93
2022/02/23 03:21:01;;;;;;;;;5.33;4.00;;;;;12.64;100.00;102284.50;5034441;28;45474;-93
2022/02/23 03:23:28;;;;;;;;;5.67;3.00;;;;;12.54;100.00;102285.66;5069605;28;45577;-92
2022/02/23 03:25:54;;;;;;;;;4.67;3.00;;;;;12.54;100.00;102287.38;5051707;28;47348;-92
2022/02/23 03:28:19;;;;;;;;;1.67;1.67;;;;;12.51;100.00;102286.38;5051596;28;45979;-93
2022/02/23 03:30:45;;;;;;;;;4.67;4.67;;;;;12.49;100.00;102280.09;5045348;28;45403;-92
2022/02/23 03:33:10;;;;;;;;;5.33;4.00;;;;;12.52;100.00;102293.44;5037371;28;45614;-93
2022/02/23 03:35:40;;;;;;;;;2.33;2.33;;;;;12.61;100.00;102297.47;5052440;28;48346;-91
2022/02/23 03:38:06;;;;;;;;;4.67;4.33;;;;;12.48;100.00;102286.16;5051876;28;45490;-92
2022/02/23 03:40:32;;;;;;;;;8.33;4.67;;;;;12.49;100.00;102303.81;5043331;28;45472;-92
2022/02/23 03:42:58;;;;;;;;;6.00;4.67;;;;;12.37;100.00;102290.75;5043910;28;45500;-93
2022/02/23 03:45:24;;;;;;;;;4.33;1.00;;;;;12.36;100.00;102290.66;5051691;28;48052;-92
2022/02/23 03:47:50;;;;;;;;;8.67;6.67;;;;;12.45;100.00;102303.47;5052285;28;45455;-93
2022/02/23 03:50:15;;;;;;;;;5.00;3.33;;;;;12.34;100.00;102287.03;5052454;28;45809;-93
2022/02/23 03:52:41;;;;;;;;;4.67;2.67;;;;;12.32;100.00;102292.19;5052293;28;45408;-92
2022/02/23 03:55:08;;;;;;;;;7.33;3.67;;;;;12.40;100.00;102303.19;5051053;28;47137;-91
2022/02/23 03:57:34;;;;;;;;;5.00;3.00;;;;;12.26;100.00;102278.66;5050253;28;45244;-93
2022/02/23 03:59:59;;;;;;;;;2.33;2.33;;;;;12.38;100.00;102299.56;5068865;28;45398;-92
2022/02/23 04:02:25;;;;;;;;;8.00;6.00;;;;;12.31;100.00;102300.00;5051603;28;45572;-92
2022/02/23 04:04:51;;;;;;;;;6.00;3.00;;;;;12.28;100.00;102299.00;5046235;28;46928;-93
2022/02/23 04:07:16;;;;;;;;;3.67;3.00;;;;;12.27;100.00;102290.97;5054495;28;45931;-92
2022/02/23 04:09:43;;;;;;;;;6.33;3.33;;;;;12.23;100.00;102291.63;5054672;28;45766;-92
2022/02/23 04:12:09;;;;;;;;;4.33;4.33;;;;;12.19;100.00;102287.84;5072039;27;45567;-92
2022/02/23 04:14:35;;;;;;;;;9.67;7.00;;;;;12.17;100.00;102290.41;5071367;28;47110;-92
2022/02/23 04:17:01;;;;;;;;;6.67;6.33;;;;;12.21;100.00;102303.78;5052466;28;46080;-92
2022/02/23 04:19:27;;;;;;;;;7.33;6.67;;;;;12.16;100.00;102290.31;5054125;28;45817;-92
2022/02/23 04:21:52;;;;;;;;;7.67;6.67;;;;;12.14;100.00;102284.03;5054315;28;45466;-92
2022/02/23 04:24:17;;;;;;;;;9.00;4.00;;;;;12.05;100.00;102282.63;5054372;28;48178;-93
2022/02/23 04:26:43;;;;;;;;;6.67;5.00;;;;;12.11;100.00;102294.34;5054989;28;45783;-92
2022/02/23 04:29:08;;;;;;;;;6.33;4.33;;;;;12.02;100.00;102278.88;5055921;28;45476;-92
2022/02/23 04:31:34;;;;;;;;;5.67;5.67;;;;;12.04;100.00;102285.13;5045219;28;45401;-92
2022/02/23 04:34:00;;;;;;;;;6.00;5.67;;;;;12.02;100.00;102282.41;5046671;28;48299;-92
2022/02/23 04:36:25;;;;;;;;;7.00;4.00;;;;;11.99;100.00;102291.81;5051958;28;45503;-92
2022/02/23 04:38:51;;;;;;;;;7.67;6.00;;;;;11.94;100.00;102291.53;5054658;28;45408;-92
2022/02/23 04:41:17;;;;;;;;;3.00;3.00;;;;;11.92;100.00;102290.53;5071570;28;45526;-92
2022/02/23 04:43:42;;;;;;;;;3.67;3.67;;;;;11.85;100.00;102276.97;5054451;28;46408;-92
2022/02/23 04:46:13;;;;;;;;;5.67;5.67;;;;;11.92;100.00;102295.78;5049072;28;45514;-92
2022/02/23 04:48:41;;;;;;;;;7.00;4.00;;;;;11.86;100.00;102293.66;5054567;28;45302;-92
2022/02/23 04:51:07;;;;;;;;;5.00;4.00;;;;;11.89;100.00;102299.13;5051252;28;45528;-92
2022/02/23 04:53:33;;;;;;;;;6.00;3.00;;;;;11.78;100.00;102277.38;5054493;28;47303;-93
2022/02/23 04:55:58;;;;;;;;;4.00;3.00;;;;;11.84;100.00;102287.41;5046489;28;45520;-93
2022/02/23 04:58:24;;;;;;;;;3.67;3.67;;;;;11.85;100.00;102294.50;5050971;28;45499;-92
2022/02/23 05:00:49;;;;;;;;;4.67;3.67;;;;;11.81;100.00;102295.06;5055244;28;45562;-91
2022/02/23 05:03:15;;;;;;;;;2.67;2.67;;;;;11.82;100.00;102304.81;5054608;28;47272;-92
2022/02/23 05:05:42;;;;;;;;;2.67;2.67;;;;;11.75;100.00;102300.84;5054461;28;45604;-92
2022/02/23 05:08:08;;;;;;;;;6.67;4.00;;;;;11.71;100.00;102296.19;5071517;28;45235;-92
2022/02/23 05:10:33;;;;;;;;;4.00;4.00;;;;;11.70;100.00;102291.75;5053202;28;45289;-91
2022/02/23 05:12:59;;;;;;;;;5.67;4.00;;;;;11.70;100.00;102302.28;5072993;27;48067;-92
2022/02/23 05:15:24;;;;;;;;;6.00;3.33;;;;;11.67;100.00;102300.38;5054429;28;45400;-92
2022/02/23 05:17:50;;;;;;;;;3.67;3.00;;;;;11.69;100.00;102300.47;5054244;28;45380;-92
2022/02/23 05:20:15;;;;;;;;;6.00;4.00;;;;;11.67;100.00;102302.06;5054844;28;45466;-92
2022/02/23 05:22:42;;;;;;;;;6.33;5.33;;;;;11.60;100.00;102300.75;5050499;28;47076;-92
2022/02/23 05:25:08;;;;;;;;;4.33;3.00;;;;;11.59;100.00;102306.84;5049539;28;45560;-93
2022/02/23 05:27:34;;;;;;;;;4.67;3.00;;;;;11.53;100.00;102312.59;5078851;28;44887;-93
2022/02/23 05:29:59;;;;;;;;;9.00;4.33;;;;;11.38;100.00;102294.97;5078987;28;44947;-92
2022/02/23 05:32:24;;;;;;;;;4.67;4.67;;;;;11.43;100.00;102310.16;5082091;27;46993;-92
2022/02/23 05:34:50;;;;;;;;;4.33;4.33;;;;;11.33;100.00;102304.28;5071817;27;45403;-92
2022/02/23 05:37:15;;;;;;;;;9.67;6.00;;;;;11.36;100.00;102315.00;5044893;28;45805;-92
2022/02/23 05:39:40;;;;;;;;;6.67;4.00;;;;;11.30;100.00;102322.47;5046835;28;45400;-93
2022/02/23 05:42:06;;;;;;;;;7.33;6.00;;;;;11.28;100.00;102330.25;5055233;28;47260;-92
2022/02/23 05:44:31;;;;;;;;;7.00;5.67;;;;;11.17;100.00;102324.25;5053154;28;45998;-92
2022/02/23 05:46:57;;;;;;;;;7.67;5.67;;;;;11.09;100.00;102303.50;5054732;28;45393;-91
2022/02/23 05:49:22;;;;;;;;;8.00;7.00;;;;;11.14;100.00;102321.41;5052893;28;45522;-92
2022/02/23 05:51:48;;;;;;;;;9.67;8.67;;;;;11.19;100.00;102337.50;5051191;28;47982;-92
2022/02/23 05:54:15;;;;;;;;;8.33;6.33;;;;;11.11;100.00;102331.72;5054582;28;45381;-92
2022/02/23 05:56:42;;;;;;;;;8.33;6.00;;;;;11.09;100.00;102337.66;5053002;28;46238;-92
2022/02/23 05:59:08;;;;;;;;;4.33;4.33;;;;;11.09;100.00;102342.94;5068582;27;45410;-92
2022/02/23 06:01:34;;;;;;;;;10.33;8.00;;;;;10.95;100.00;102321.88;5051402;28;46390;-92
2022/02/23 06:04:00;;;;;;;;;6.67;5.67;;;;;10.87;100.00;102316.09;5052499;28;46507;-92
2022/02/23 06:06:25;;;;;;;;;7.00;7.00;;;;;10.95;100.00;102328.03;5049687;28;45490;-92
2022/02/23 06:08:51;;;;;;;;;11.33;10.67;;;;;10.90;100.00;102324.16;5053472;28;50758;-92
2022/02/23 06:11:16;;;;;;;;;10.67;8.00;;;;;10.97;100.00;102338.66;5054451;28;45462;-92
2022/02/23 06:13:42;;;;;;;;;8.67;7.33;;;;;10.94;100.00;102339.34;5053220;28;45814;-92
2022/02/23 06:16:08;;;;;;;;;12.33;8.00;;;;;10.90;100.00;102337.31;5053202;28;45659;-92
2022/02/23 06:18:33;;;;;;;;;14.33;10.33;;;;;10.86;100.00;102334.34;5052956;28;45436;-93
2022/02/23 06:20:59;;;;;;;;;25.00;19.50;;;;;10.80;100.00;102337.47;5050640;28;47237;-91
2022/02/23 06:23:25;;;;;;;;;19.50;18.25;;;;;10.76;100.00;102332.81;5055504;28;45685;-92
2022/02/23 06:25:52;;;;;;;;;14.33;13.67;;;;;10.81;100.00;102341.91;5054552;28;45610;-92
2022/02/23 06:28:17;;;;;;;;;13.00;13.00;;;;;10.75;100.00;102331.88;5053242;28;45443;-92
2022/02/23 06:30:43;;;;;;;;;12.67;11.67;;;;;10.74;100.00;102348.47;5053792;28;45549;-92
2022/02/23 06:33:12;;;;;;;;;19.00;14.33;;;;;10.73;100.00;102342.28;5052121;28;45404;-93
2022/02/23 06:35:38;;;;;;;;;12.67;8.67;;;;;10.70;100.00;102355.22;5053024;28;45464;-93
2022/02/23 06:38:04;;;;;;;;;16.00;13.00;;;;;10.73;100.00;102359.75;5053426;28;45439;-92
2022/02/23 06:40:30;;;;;;;;;12.67;12.00;;;;;10.71;100.00;102358.75;5054711;28;47033;-92
2022/02/23 06:42:55;;;;;;;;;5.33;2.00;;;;;10.64;100.00;102357.41;5056873;28;45740;-93
2022/02/23 06:45:21;;;;;;;;;17.33;11.00;;;;;10.70;100.00;102360.47;5052834;28;45396;-92
2022/02/23 06:47:47;;;;;;;;;13.67;12.33;;;;;10.71;100.00;102361.38;5052120;28;45482;-92
2022/02/23 06:50:13;;;;;;;;;12.75;12.75;;;;;10.80;100.00;102361.09;5053281;28;47134;-92
2022/02/23 06:52:40;;;;;;;;;17.33;15.33;;;;;10.93;100.00;102357.63;5052673;28;53741;-93
2022/02/23 06:55:07;;;;;;;;;17.00;12.00;;;;;11.01;100.00;102364.34;5077386;27;45292;-92
2022/02/23 06:57:37;;;;;;;;;12.33;11.67;;;;;11.12;100.00;102354.56;5070494;28;45480;-92
2022/02/23 07:00:08;;;;;;;;;20.33;14.33;;;;;11.20;100.00;102356.81;5053220;28;49684;-93
2022/02/23 07:02:34;;;;;;;;;16.00;14.67;;;;;11.07;100.00;102329.69;5054330;28;45530;-93
2022/02/23 07:05:00;;;;;;;;;19.00;14.00;;;;;11.18;100.00;102346.22;5054141;28;45604;-92
2022/02/23 07:07:26;;;;;;;;;22.25;22.25;;;;;11.18;100.00;102344.47;5053161;28;45599;-92
2022/02/23 07:09:52;;;;;;;;;22.33;13.67;;;;;11.13;100.00;102337.09;5057173;28;46184;-90
2022/02/23 07:12:18;;;;;;;;;28.33;14.33;;;;;11.31;100.00;102365.44;5058421;28;45468;-91
2022/02/23 07:14:43;;;;;;;;;21.33;16.67;;;;;11.22;100.00;102337.72;5065687;28;45450;-89
2022/02/23 07:17:09;;;;;;;;;21.33;17.67;;;;;11.33;100.00;102353.31;5065379;28;45357;-89
2022/02/23 07:19:35;;;;;;;;;18.00;12.67;;;;;11.33;100.00;102359.50;5062902;28;47463;-90
2022/02/23 07:22:00;;;;;;;;;13.00;12.67;;;;;11.43;100.00;102371.53;5063917;28;45492;-91
2022/02/23 07:24:26;;;;;;;;;20.67;16.67;;;;;11.42;100.00;102364.44;5068521;28;45702;-85
2022/02/23 07:26:51;;;;;;;;;20.25;17.50;;;;;11.46;100.00;102361.25;5050453;28;48487;-85
2022/02/23 07:29:16;;;;;;;;;20.00;16.00;;;;;11.48;100.00;102359.63;5051748;28;49915;-85
2022/02/23 07:31:44;;;;;;;;;19.75;16.50;;;;;11.59;100.00;102367.31;5050161;28;45498;-85
2022/02/23 07:34:09;;;;;;;;;16.67;14.67;;;;;11.66;100.00;102366.00;5050962;28;45445;-86
2022/02/23 07:36:34;;;;;;;;;27.00;21.00;;;;;11.75;100.00;102363.97;5053730;28;45454;-86
2022/02/23 07:39:00;;;;;;;;;25.75;21.25;;;;;11.82;100.00;102370.56;5053848;28;48478;-85
2022/02/23 07:41:25;;;;;;;;;27.00;19.75;;;;;11.84;100.00;102371.59;5055578;28;45354;-86
2022/02/23 07:43:52;;;;;;;;;23.75;18.25;;;;;11.92;100.00;102372.09;5053415;28;45715;-85
2022/02/23 07:46:18;;;;;;;;;21.75;20.25;;;;;11.97;100.00;102373.31;5053396;28;45538;-85
2022/02/23 07:48:47;;;;;;;;;27.50;22.00;;;;;12.10;100.00;102376.75;5050712;28;47453;-85
2022/02/23 07:51:14;;;;;;;;;20.67;17.67;;;;;12.20;100.00;102387.09;5053147;28;45518;-85
2022/02/23 07:53:40;;;;;;;;;21.67;15.33;;;;;12.24;100.00;102385.59;5053974;28;45355;-85
2022/02/23 07:56:06;;;;;;;;;14.67;10.00;;;;;12.26;100.00;102374.34;5054313;28;45729;-85
2022/02/23 07:58:32;;;;;;;;;15.67;12.00;;;;;12.33;100.00;102380.91;5049099;28;46230;-85
2022/02/23 08:00:57;;;;;;;;;13.33;12.00;;;;;12.37;100.00;102382.91;5050097;28;45379;-85
2022/02/23 08:03:23;;;;;;;;;19.00;14.33;;;;;12.44;100.00;102384.25;5053931;28;45487;-85
2022/02/23 08:05:49;;;;;;;;;27.25;20.50;;;;;12.46;100.00;102385.25;5043326;28;45599;-85
2022/02/23 08:08:16;;;;;;;;;31.25;23.25;;;;;12.49;100.00;102387.16;5046873;28;47798;-85
2022/02/23 08:10:42;;;;;;;;;28.25;25.00;;;;;12.51;100.00;102391.72;5045243;28;45630;-85
2022/02/23 08:13:07;;;;;;;;;32.75;22.50;;;;;12.53;100.00;102397.06;5044791;28;45590;-85
2022/02/23 08:21:01;;;;;;;;;23.00;18.67;;;;;12.55;100.00;102389.28;5037478;28;45551;-84
2022/02/23 08:23:26;;;;;;;;;25.33;19.67;;;;;12.61;100.00;102392.28;5051919;28;45305;-85
2022/02/23 08:25:51;;;;;;;;;23.00;15.67;;;;;12.61;100.00;102400.19;5052310;28;45578;-85
2022/02/23 08:28:17;;;;;;;;;24.25;21.25;;;;;12.66;100.00;102400.47;5052199;28;46317;-84
2022/02/23 08:30:43;;;;;;;;;29.50;22.50;;;;;12.72;100.00;102398.25;5049476;28;45353;-84
2022/02/23 08:33:08;;;;;;;;;20.50;14.25;;;;;12.75;100.00;102401.09;5046996;28;45488;-85
2022/02/23 08:35:33;;;;;;;;;29.50;19.50;;;;;12.80;100.00;102410.19;5053483;28;45590;-84
2022/02/23 08:37:59;;;;;;;;;28.00;21.67;;;;;12.89;100.00;102403.66;5061112;28;48353;-84
2022/02/23 08:40:26;;;;;;;;;25.75;24.25;;;;;12.87;100.00;102406.22;5043196;28;45763;-84
2022/02/23 08:42:53;;;;;;;;;30.75;19.50;;;;;12.95;100.00;102404.97;5046642;28;45474;-84
2022/02/23 08:45:18;;;;;;;;;28.75;23.50;;;;;13.01;100.00;102401.81;5044720;28;45525;-85
2022/02/23 08:47:44;;;;;;;;;24.00;19.25;;;;;13.13;100.00;102404.28;5037510;28;46802;-86
2022/02/23 08:50:09;;;;;;;;;23.67;19.00;;;;;13.31;100.00;102400.94;5051664;28;45496;-85
2022/02/23 08:52:35;;;;;;;;;26.00;20.00;;;;;13.48;100.00;102406.31;5042888;28;45544;-86
2022/02/23 08:55:00;;;;;;;;;24.50;20.00;;;;;13.54;100.00;102411.06;5059309;28;45867;-85
2022/02/23 08:57:26;;;;;;;;;30.00;21.00;;;;;13.69;100.00;102411.09;5046689;28;48054;-84
2022/02/23 08:59:51;;;;;;;;;25.25;22.25;;;;;13.78;100.00;102408.09;5051251;28;45385;-84
2022/02/23 09:02:17;;;;;;;;;26.50;25.25;;;;;13.82;100.00;102415.38;5050817;28;45397;-85
2022/02/23 09:04:43;;;;;;;;;28.75;25.75;;;;;13.87;100.00;102415.63;5049053;28;45635;-84
2022/02/23 09:07:10;;;;;;;;;31.25;25.75;;;;;13.88;100.00;102406.91;5060182;28;49497;-84
2022/02/23 09:09:36;;;;;;;;;34.25;24.75;;;;;13.89;100.00;102406.09;5065861;28;46012;-85
2022/02/23 09:12:02;;;;;;;;;30.50;27.25;;;;;13.98;100.00;102404.00;5050764;28;45721;-85
2022/02/23 09:14:27;;;;;;;;;25.75;21.50;;;;;14.00;100.00;102411.97;5054177;28;45618;-84
2022/02/23 09:16:52;;;;;;;;;31.50;24.00;;;;;14.02;100.00;102407.72;5038670;28;47206;-85
2022/02/23 09:19:18;;;;;;;;;25.67;22.67;;;;;14.10;100.00;102418.72;5049164;28;45907;-85
2022/02/23 09:21:43;;;;;;;;;23.33;18.33;;;;;14.13;100.00;102414.53;5050257;28;45499;-85
2022/02/23 09:24:08;;;;;;;;;31.00;24.33;;;;;14.19;100.00;102411.34;5051076;28;45575;-85
2022/02/23 09:26:34;;;;;;;;;29.67;25.67;;;;;14.20;100.00;102410.50;5049714;28;47897;-85
2022/02/23 09:29:00;;;;;;;;;32.75;28.75;;;;;14.23;100.00;102408.03;5046711;28;45606;-84
2022/02/23 09:31:26;;;;;;;;;31.33;23.67;;;;;14.39;100.00;102406.25;5044203;28;45452;-84
2022/02/23 09:33:54;;;;;;;;;21.33;20.00;;;;;14.52;100.00;102407.88;5049944;28;45453;-85
2022/02/23 09:36:19;;;;;;;;;26.33;22.67;;;;;14.64;100.00;102397.06;5050445;28;45474;-85
2022/02/23 09:38:45;;;;;;;;;32.25;26.25;;;;;14.76;100.00;102399.47;5044357;28;45761;-85
2022/02/23 09:41:14;;;;;;;;;29.50;25.00;;;;;14.83;100.00;102392.78;5037058;28;45492;-85
2022/02/23 09:43:39;;;;;;;;;27.67;23.67;;;;;14.94;100.00;102401.34;5045859;28;45555;-85
2022/02/23 09:46:08;;;;;;;;;29.50;25.00;;;;;15.15;100.00;102400.69;5053827;28;48061;-85
2022/02/23 09:48:34;;;;;;;;;28.00;19.33;;;;;15.30;100.00;102390.91;5048152;28;50932;-85
2022/02/23 09:51:00;;;;;;;;;26.67;21.33;;;;;15.46;100.00;102398.72;5039679;28;46135;-86
2022/02/23 09:53:26;;;;;;;;;26.33;23.67;;;;;15.43;100.00;102391.53;5038500;28;45411;-85
2022/02/23 09:55:56;;;;;;;;;27.00;24.00;;;;;15.46;100.00;102396.97;5053178;28;46402;-85
2022/02/23 09:58:24;;;;;;;;;31.00;24.67;;;;;15.40;100.00;102389.66;5045997;28;45424;-85
2022/02/23 10:00:49;;;;;;;;;31.33;28.33;;;;;15.28;100.00;102392.53;5048262;28;45624;-85
2022/02/23 10:03:15;;;;;;;;;33.25;27.00;;;;;15.12;100.00;102379.34;5042316;28;45500;-84
2022/02/23 10:05:43;;;;;;;;;28.50;21.75;;;;;15.02;100.00;102383.25;5047543;28;45460;-83
2022/02/23 10:08:09;;;;;;;;;32.00;28.25;;;;;14.84;100.00;102384.03;5048186;28;45544;-85
2022/02/23 10:10:37;;;;;;;;;32.75;31.25;;;;;14.87;100.00;102375.41;5048010;28;45455;-84
2022/02/23 10:13:03;;;;;;;;;37.25;33.00;;;;;14.83;100.00;102374.28;5043110;28;45536;-86
2022/02/23 10:15:30;;;;;;;;;31.50;22.25;;;;;14.87;100.00;102373.66;5038348;28;45745;-85
2022/02/23 10:18:04;;;;;;;;;36.25;31.25;;;;;14.82;100.00;102364.53;5033013;28;45453;-85
2022/02/23 10:20:36;;;;;;;;;46.50;34.75;;;;;14.94;100.00;102370.53;5039704;28;45534;-84
2022/02/23 10:23:05;;;;;;;;;39.75;29.25;;;;;14.96;100.00;102368.88;5043110;28;45804;-85
2022/02/23 10:25:35;;;;;;;;;36.25;32.25;;;;;14.91;100.00;102369.44;5036098;28;45568;-85
2022/02/23 10:28:10;;;;;;;;;47.25;36.25;;;;;15.06;100.00;102369.34;5045061;28;46729;-85
2022/02/23 10:30:48;;;;;;;;;43.50;35.00;;;;;15.28;100.00;102368.72;5044624;28;45441;-85
2022/02/23 10:33:26;;;;;;;;;40.25;32.75;;;;;15.53;100.00;102370.00;5045938;28;45534;-85
2022/02/23 10:36:00;;;;;;;;;39.75;33.00;;;;;15.72;100.00;102372.69;5037329;28;48275;-85
2022/02/23 10:38:34;;;;;;;;;39.00;32.75;;;;;16.10;100.00;102363.94;5049246;28;45512;-85
2022/02/23 10:41:03;;;;;;;;;37.00;33.00;;;;;16.28;100.00;102359.53;5047593;28;45451;-85
2022/02/23 10:43:34;;;;;;;;;37.75;32.75;;;;;16.42;100.00;102356.59;5046774;28;45519;-85
2022/02/23 10:46:05;;;;;;;;;36.25;32.00;;;;;16.46;100.00;102352.38;5055414;28;47639;-85
2022/02/23 10:48:44;;;;;;;;;38.50;31.75;;;;;16.49;100.00;102355.16;5042871;28;45554;-84
2022/02/23 10:51:32;;;;;;;;;34.50;29.25;;;;;16.51;100.00;102342.88;5042390;28;45420;-87
2022/02/23 10:54:11;;;;;;;;;38.50;31.25;;;;;16.67;100.00;102343.59;5031245;28;46439;-89
2022/02/23 10:56:41;;;;;;;;;45.50;32.00;;;;;16.82;100.00;102346.94;5048126;28;46002;-84
2022/02/23 10:59:07;;;;;;;;;32.00;29.75;;;;;16.90;100.00;102339.34;5044223;28;45504;-86
2022/02/23 11:01:34;;;;;;;;;34.00;32.00;;;;;17.18;100.00;102344.97;5044589;28;45479;-86
2022/02/23 11:03:59;;;;;;;;;29.50;26.25;;;;;17.32;100.00;102348.22;5047673;28;45413;-85
2022/02/23 11:06:26;;;;;;;;;26.33;26.00;;;;;17.21;100.00;102331.84;5034873;28;47198;-85
2022/02/23 11:08:52;;;;;;;;;27.33;22.33;;;;;17.17;100.00;102333.44;5045883;28;45326;-85
2022/02/23 11:11:19;;;;;;;;;31.33;23.67;;;;;17.03;100.00;102337.22;5043891;28;45498;-85